SALOAN 241500Z 02005KT 12KM FEW300CI RMK FEW
FCLOAN AMD 241205Z 2412/2421 05006KT 9999 FEW050 TEMPO 2412/2418 09010KT